sensor_id;sensor_type;location;lat;lon;timestamp;P1;durP1;ratioP1;P2;durP2;ratioP2
79759;SDS011;70512;42.122;24.732;2023-10-19T00:00:55;26.70;;;20.25;;
79759;SDS011;70512;42.122;24.732;2023-10-19T00:03:23;23.73;;;19.12;;
79759;SDS011;70512;42.122;24.732;2023-10-19T00:05:53;25.97;;;19.60;;
79759;SDS011;70512;42.122;24.732;2023-10-19T00:08:22;25.48;;;19.37;;
79759;SDS011;70512;42.122;24.732;2023-10-19T00:10:50;25.15;;;19.75;;
79759;SDS011;70512;42.122;24.732;2023-10-19T00:13:33;25.75;;;19.48;;
79759;SDS011;70512;42.122;24.732;2023-10-19T00:16:06;28.02;;;19.23;;
79759;SDS011;70512;42.122;24.732;2023-10-19T00:18:45;25.80;;;19.45;;
79759;SDS011;70512;42.122;24.732;2023-10-19T00:21:14;29.82;;;19.00;;
79759;SDS011;70512;42.122;24.732;2023-10-19T00:23:57;27.32;;;18.17;;
79759;SDS011;70512;42.122;24.732;2023-10-19T00:26:29;23.12;;;18.55;;
79759;SDS011;70512;42.122;24.732;2023-10-19T00:28:57;25.23;;;17.85;;
79759;SDS011;70512;42.122;24.732;2023-10-19T00:31:26;25.15;;;18.12;;
79759;SDS011;70512;42.122;24.732;2023-10-19T00:33:54;24.30;;;18.17;;
79759;SDS011;70512;42.122;24.732;2023-10-19T00:36:23;24.77;;;18.45;;
79759;SDS011;70512;42.122;24.732;2023-10-19T00:38:52;25.57;;;17.98;;
79759;SDS011;70512;42.122;24.732;2023-10-19T00:41:26;26.65;;;18.65;;
79759;SDS011;70512;42.122;24.732;2023-10-19T00:43:58;25.00;;;18.00;;
79759;SDS011;70512;42.122;24.732;2023-10-19T00:46:28;25.95;;;18.80;;
79759;SDS011;70512;42.122;24.732;2023-10-19T00:49:01;29.90;;;19.50;;
79759;SDS011;70512;42.122;24.732;2023-10-19T00:51:33;25.00;;;18.07;;
79759;SDS011;70512;42.122;24.732;2023-10-19T00:56:45;26.05;;;19.27;;
79759;SDS011;70512;42.122;24.732;2023-10-19T00:59:21;23.62;;;18.32;;
79759;SDS011;70512;42.122;24.732;2023-10-19T01:01:51;27.45;;;19.62;;
79759;SDS011;70512;42.122;24.732;2023-10-19T01:04:24;24.25;;;19.37;;
79759;SDS011;70512;42.122;24.732;2023-10-19T01:06:53;32.03;;;21.97;;
79759;SDS011;70512;42.122;24.732;2023-10-19T01:09:35;43.83;;;27.17;;
79759;SDS011;70512;42.122;24.732;2023-10-19T01:12:04;42.05;;;25.57;;
79759;SDS011;70512;42.122;24.732;2023-10-19T01:15:03;34.53;;;24.75;;
79759;SDS011;70512;42.122;24.732;2023-10-19T01:17:52;32.88;;;23.05;;
79759;SDS011;70512;42.122;24.732;2023-10-19T01:20:24;34.63;;;22.90;;
79759;SDS011;70512;42.122;24.732;2023-10-19T01:23:01;33.85;;;22.90;;
79759;SDS011;70512;42.122;24.732;2023-10-19T01:28:40;27.60;;;19.50;;
79759;SDS011;70512;42.122;24.732;2023-10-19T01:31:09;29.98;;;20.82;;
79759;SDS011;70512;42.122;24.732;2023-10-19T01:33:43;26.48;;;19.15;;
79759;SDS011;70512;42.122;24.732;2023-10-19T01:36:12;25.70;;;19.70;;
79759;SDS011;70512;42.122;24.732;2023-10-19T01:38:44;32.50;;;19.80;;
79759;SDS011;70512;42.122;24.732;2023-10-19T01:41:13;28.00;;;20.52;;
79759;SDS011;70512;42.122;24.732;2023-10-19T01:43:43;23.67;;;18.30;;
79759;SDS011;70512;42.122;24.732;2023-10-19T01:46:13;29.50;;;19.57;;
79759;SDS011;70512;42.122;24.732;2023-10-19T01:48:43;22.60;;;17.73;;
79759;SDS011;70512;42.122;24.732;2023-10-19T01:51:11;27.25;;;19.48;;
79759;SDS011;70512;42.122;24.732;2023-10-19T01:53:40;24.65;;;18.12;;
79759;SDS011;70512;42.122;24.732;2023-10-19T01:56:12;23.42;;;17.17;;
79759;SDS011;70512;42.122;24.732;2023-10-19T01:58:43;20.10;;;16.12;;
79759;SDS011;70512;42.122;24.732;2023-10-19T02:01:17;26.70;;;18.20;;
79759;SDS011;70512;42.122;24.732;2023-10-19T02:03:59;27.42;;;18.75;;
79759;SDS011;70512;42.122;24.732;2023-10-19T02:06:29;25.92;;;18.65;;
79759;SDS011;70512;42.122;24.732;2023-10-19T02:09:03;28.10;;;18.90;;
79759;SDS011;70512;42.122;24.732;2023-10-19T02:11:37;28.00;;;18.85;;
79759;SDS011;70512;42.122;24.732;2023-10-19T02:14:06;24.77;;;16.75;;
79759;SDS011;70512;42.122;24.732;2023-10-19T02:16:36;24.60;;;18.32;;
79759;SDS011;70512;42.122;24.732;2023-10-19T02:19:04;22.45;;;17.50;;
79759;SDS011;70512;42.122;24.732;2023-10-19T02:21:31;27.13;;;19.07;;
79759;SDS011;70512;42.122;24.732;2023-10-19T02:24:01;29.80;;;18.10;;
79759;SDS011;70512;42.122;24.732;2023-10-19T02:26:28;25.80;;;17.92;;
79759;SDS011;70512;42.122;24.732;2023-10-19T02:28:57;26.73;;;17.80;;
79759;SDS011;70512;42.122;24.732;2023-10-19T02:31:25;22.70;;;16.42;;
79759;SDS011;70512;42.122;24.732;2023-10-19T02:33:53;24.35;;;16.87;;
79759;SDS011;70512;42.122;24.732;2023-10-19T02:36:27;27.35;;;17.45;;
79759;SDS011;70512;42.122;24.732;2023-10-19T02:38:56;20.37;;;15.55;;
79759;SDS011;70512;42.122;24.732;2023-10-19T02:41:25;20.40;;;14.60;;
79759;SDS011;70512;42.122;24.732;2023-10-19T02:43:54;17.15;;;14.43;;
79759;SDS011;70512;42.122;24.732;2023-10-19T02:46:29;22.25;;;16.17;;
79759;SDS011;70512;42.122;24.732;2023-10-19T02:49:02;28.15;;;16.42;;
79759;SDS011;70512;42.122;24.732;2023-10-19T02:51:32;21.45;;;15.28;;
79759;SDS011;70512;42.122;24.732;2023-10-19T02:54:00;21.65;;;14.35;;
79759;SDS011;70512;42.122;24.732;2023-10-19T02:56:28;24.05;;;15.50;;
79759;SDS011;70512;42.122;24.732;2023-10-19T03:01:30;22.48;;;13.93;;
79759;SDS011;70512;42.122;24.732;2023-10-19T03:04:00;18.77;;;13.30;;
79759;SDS011;70512;42.122;24.732;2023-10-19T03:06:30;27.10;;;14.43;;
79759;SDS011;70512;42.122;24.732;2023-10-19T03:09:06;20.97;;;13.60;;
79759;SDS011;70512;42.122;24.732;2023-10-19T03:11:42;29.15;;;15.48;;
79759;SDS011;70512;42.122;24.732;2023-10-19T03:14:10;24.32;;;15.93;;
79759;SDS011;70512;42.122;24.732;2023-10-19T03:16:39;28.77;;;14.93;;
79759;SDS011;70512;42.122;24.732;2023-10-19T03:19:08;27.17;;;14.78;;
79759;SDS011;70512;42.122;24.732;2023-10-19T03:21:36;27.48;;;16.70;;
79759;SDS011;70512;42.122;24.732;2023-10-19T03:24:10;27.77;;;16.37;;
79759;SDS011;70512;42.122;24.732;2023-10-19T03:29:20;20.25;;;13.25;;
79759;SDS011;70512;42.122;24.732;2023-10-19T03:32:01;21.80;;;13.83;;
79759;SDS011;70512;42.122;24.732;2023-10-19T03:34:29;17.57;;;13.55;;
79759;SDS011;70512;42.122;24.732;2023-10-19T03:36:58;21.57;;;14.18;;
79759;SDS011;70512;42.122;24.732;2023-10-19T03:39:27;16.45;;;12.88;;
79759;SDS011;70512;42.122;24.732;2023-10-19T03:41:56;19.48;;;14.43;;
79759;SDS011;70512;42.122;24.732;2023-10-19T03:44:23;19.07;;;14.03;;
79759;SDS011;70512;42.122;24.732;2023-10-19T03:46:51;18.30;;;13.18;;
79759;SDS011;70512;42.122;24.732;2023-10-19T03:49:19;14.87;;;12.30;;
79759;SDS011;70512;42.122;24.732;2023-10-19T03:51:47;18.95;;;12.78;;
79759;SDS011;70512;42.122;24.732;2023-10-19T03:54:25;17.07;;;13.08;;
79759;SDS011;70512;42.122;24.732;2023-10-19T03:56:53;19.65;;;13.43;;
79759;SDS011;70512;42.122;24.732;2023-10-19T03:59:23;19.85;;;14.00;;
79759;SDS011;70512;42.122;24.732;2023-10-19T04:01:52;20.02;;;14.70;;
79759;SDS011;70512;42.122;24.732;2023-10-19T04:04:20;26.85;;;14.78;;
79759;SDS011;70512;42.122;24.732;2023-10-19T04:06:48;20.62;;;15.18;;
79759;SDS011;70512;42.122;24.732;2023-10-19T04:09:17;20.30;;;14.87;;
79759;SDS011;70512;42.122;24.732;2023-10-19T04:11:45;19.77;;;14.95;;
79759;SDS011;70512;42.122;24.732;2023-10-19T04:14:15;24.67;;;15.13;;
79759;SDS011;70512;42.122;24.732;2023-10-19T04:16:45;20.50;;;15.18;;
79759;SDS011;70512;42.122;24.732;2023-10-19T04:19:14;19.37;;;14.87;;
79759;SDS011;70512;42.122;24.732;2023-10-19T04:21:42;23.32;;;16.90;;
79759;SDS011;70512;42.122;24.732;2023-10-19T04:24:13;20.90;;;15.28;;
79759;SDS011;70512;42.122;24.732;2023-10-19T04:26:42;20.72;;;15.80;;
79759;SDS011;70512;42.122;24.732;2023-10-19T04:29:10;25.95;;;15.78;;
79759;SDS011;70512;42.122;24.732;2023-10-19T04:31:40;22.35;;;16.40;;
79759;SDS011;70512;42.122;24.732;2023-10-19T04:34:09;37.85;;;17.48;;
79759;SDS011;70512;42.122;24.732;2023-10-19T04:36:36;24.87;;;17.90;;
79759;SDS011;70512;42.122;24.732;2023-10-19T04:39:05;22.15;;;18.40;;
79759;SDS011;70512;42.122;24.732;2023-10-19T04:41:34;31.37;;;19.10;;
79759;SDS011;70512;42.122;24.732;2023-10-19T04:44:02;25.20;;;19.12;;
79759;SDS011;70512;42.122;24.732;2023-10-19T04:46:32;26.70;;;18.15;;
79759;SDS011;70512;42.122;24.732;2023-10-19T04:48:59;23.80;;;18.75;;
79759;SDS011;70512;42.122;24.732;2023-10-19T04:51:28;23.77;;;17.25;;
79759;SDS011;70512;42.122;24.732;2023-10-19T04:53:56;27.27;;;18.25;;
79759;SDS011;70512;42.122;24.732;2023-10-19T04:56:24;24.82;;;18.70;;
79759;SDS011;70512;42.122;24.732;2023-10-19T04:58:51;24.45;;;18.12;;
79759;SDS011;70512;42.122;24.732;2023-10-19T05:01:19;21.37;;;16.90;;
79759;SDS011;70512;42.122;24.732;2023-10-19T05:03:50;24.27;;;17.02;;
79759;SDS011;70512;42.122;24.732;2023-10-19T05:06:16;20.20;;;15.00;;
79759;SDS011;70512;42.122;24.732;2023-10-19T05:08:44;22.17;;;16.35;;
79759;SDS011;70512;42.122;24.732;2023-10-19T05:11:12;22.07;;;16.25;;
79759;SDS011;70512;42.122;24.732;2023-10-19T05:13:40;24.20;;;16.30;;
79759;SDS011;70512;42.122;24.732;2023-10-19T05:16:07;22.35;;;16.77;;
79759;SDS011;70512;42.122;24.732;2023-10-19T05:18:35;24.70;;;17.10;;
79759;SDS011;70512;42.122;24.732;2023-10-19T05:21:03;24.63;;;16.35;;
79759;SDS011;70512;42.122;24.732;2023-10-19T05:23:31;26.12;;;15.72;;
79759;SDS011;70512;42.122;24.732;2023-10-19T05:26:02;25.57;;;16.20;;
79759;SDS011;70512;42.122;24.732;2023-10-19T05:28:32;27.45;;;15.45;;
79759;SDS011;70512;42.122;24.732;2023-10-19T05:31:00;20.15;;;14.93;;
79759;SDS011;70512;42.122;24.732;2023-10-19T05:33:27;22.30;;;14.23;;
79759;SDS011;70512;42.122;24.732;2023-10-19T05:35:55;23.32;;;13.90;;
79759;SDS011;70512;42.122;24.732;2023-10-19T05:38:23;21.35;;;14.55;;
79759;SDS011;70512;42.122;24.732;2023-10-19T05:40:51;20.25;;;14.55;;
79759;SDS011;70512;42.122;24.732;2023-10-19T05:43:18;25.00;;;15.68;;
79759;SDS011;70512;42.122;24.732;2023-10-19T05:45:46;61.33;;;30.90;;
79759;SDS011;70512;42.122;24.732;2023-10-19T05:48:15;65.52;;;38.30;;
79759;SDS011;70512;42.122;24.732;2023-10-19T05:50:43;37.90;;;25.32;;
79759;SDS011;70512;42.122;24.732;2023-10-19T05:53:10;42.25;;;28.80;;
79759;SDS011;70512;42.122;24.732;2023-10-19T05:55:39;36.13;;;25.37;;
79759;SDS011;70512;42.122;24.732;2023-10-19T05:58:07;23.50;;;16.62;;
79759;SDS011;70512;42.122;24.732;2023-10-19T06:00:37;24.20;;;17.00;;
79759;SDS011;70512;42.122;24.732;2023-10-19T06:03:05;25.80;;;17.23;;
79759;SDS011;70512;42.122;24.732;2023-10-19T06:05:32;25.52;;;17.50;;
79759;SDS011;70512;42.122;24.732;2023-10-19T06:08:00;22.60;;;14.65;;
79759;SDS011;70512;42.122;24.732;2023-10-19T06:10:28;17.40;;;14.13;;
79759;SDS011;70512;42.122;24.732;2023-10-19T06:12:55;23.07;;;15.05;;
79759;SDS011;70512;42.122;24.732;2023-10-19T06:15:23;20.55;;;15.13;;
79759;SDS011;70512;42.122;24.732;2023-10-19T06:17:51;20.82;;;13.72;;
79759;SDS011;70512;42.122;24.732;2023-10-19T06:20:18;17.02;;;13.32;;
79759;SDS011;70512;42.122;24.732;2023-10-19T06:22:48;22.98;;;14.63;;
79759;SDS011;70512;42.122;24.732;2023-10-19T06:25:18;24.10;;;13.20;;
79759;SDS011;70512;42.122;24.732;2023-10-19T06:27:47;17.37;;;12.63;;
79759;SDS011;70512;42.122;24.732;2023-10-19T06:30:16;21.62;;;13.35;;
79759;SDS011;70512;42.122;24.732;2023-10-19T06:32:46;24.18;;;13.28;;
79759;SDS011;70512;42.122;24.732;2023-10-19T06:35:18;23.83;;;13.90;;
79759;SDS011;70512;42.122;24.732;2023-10-19T06:37:46;21.97;;;13.30;;
79759;SDS011;70512;42.122;24.732;2023-10-19T06:40:15;22.02;;;13.75;;
79759;SDS011;70512;42.122;24.732;2023-10-19T06:42:43;18.15;;;12.55;;
79759;SDS011;70512;42.122;24.732;2023-10-19T06:45:20;21.17;;;13.95;;
79759;SDS011;70512;42.122;24.732;2023-10-19T06:47:49;18.12;;;13.08;;
79759;SDS011;70512;42.122;24.732;2023-10-19T06:50:16;24.27;;;14.33;;
79759;SDS011;70512;42.122;24.732;2023-10-19T06:52:45;21.27;;;14.30;;
79759;SDS011;70512;42.122;24.732;2023-10-19T06:55:14;24.30;;;13.98;;
79759;SDS011;70512;42.122;24.732;2023-10-19T06:57:47;24.15;;;14.18;;
79759;SDS011;70512;42.122;24.732;2023-10-19T07:00:15;18.02;;;12.63;;
79759;SDS011;70512;42.122;24.732;2023-10-19T07:02:46;16.57;;;12.70;;
79759;SDS011;70512;42.122;24.732;2023-10-19T07:05:15;19.02;;;13.08;;
79759;SDS011;70512;42.122;24.732;2023-10-19T07:07:53;17.62;;;12.70;;
79759;SDS011;70512;42.122;24.732;2023-10-19T07:10:22;23.38;;;12.78;;
79759;SDS011;70512;42.122;24.732;2023-10-19T07:12:51;18.17;;;11.80;;
79759;SDS011;70512;42.122;24.732;2023-10-19T07:15:21;19.23;;;12.18;;
79759;SDS011;70512;42.122;24.732;2023-10-19T07:17:51;21.00;;;12.70;;
79759;SDS011;70512;42.122;24.732;2023-10-19T07:20:21;17.20;;;12.10;;
79759;SDS011;70512;42.122;24.732;2023-10-19T07:22:58;19.52;;;12.18;;
79759;SDS011;70512;42.122;24.732;2023-10-19T07:25:22;17.45;;;12.20;;
79759;SDS011;70512;42.122;24.732;2023-10-19T07:27:52;17.52;;;12.65;;
79759;SDS011;70512;42.122;24.732;2023-10-19T07:30:20;17.50;;;13.22;;
79759;SDS011;70512;42.122;24.732;2023-10-19T07:32:50;19.00;;;12.90;;
79759;SDS011;70512;42.122;24.732;2023-10-19T07:35:23;21.07;;;13.55;;
79759;SDS011;70512;42.122;24.732;2023-10-19T07:37:52;26.10;;;13.83;;
79759;SDS011;70512;42.122;24.732;2023-10-19T07:40:22;22.22;;;12.95;;
79759;SDS011;70512;42.122;24.732;2023-10-19T07:42:50;15.90;;;12.98;;
79759;SDS011;70512;42.122;24.732;2023-10-19T07:45:21;20.32;;;14.35;;
79759;SDS011;70512;42.122;24.732;2023-10-19T07:47:49;20.70;;;13.90;;
79759;SDS011;70512;42.122;24.732;2023-10-19T07:50:16;18.87;;;12.53;;
79759;SDS011;70512;42.122;24.732;2023-10-19T07:52:49;17.92;;;12.10;;
79759;SDS011;70512;42.122;24.732;2023-10-19T07:55:18;20.30;;;13.75;;
79759;SDS011;70512;42.122;24.732;2023-10-19T07:57:51;19.02;;;13.22;;
79759;SDS011;70512;42.122;24.732;2023-10-19T08:00:20;19.20;;;13.40;;
79759;SDS011;70512;42.122;24.732;2023-10-19T08:02:49;21.82;;;13.68;;
79759;SDS011;70512;42.122;24.732;2023-10-19T08:05:17;19.62;;;13.25;;
79759;SDS011;70512;42.122;24.732;2023-10-19T08:07:45;19.92;;;13.85;;
79759;SDS011;70512;42.122;24.732;2023-10-19T08:10:15;19.25;;;15.25;;
79759;SDS011;70512;42.122;24.732;2023-10-19T08:12:43;22.07;;;14.58;;
79759;SDS011;70512;42.122;24.732;2023-10-19T08:15:14;19.35;;;14.00;;
79759;SDS011;70512;42.122;24.732;2023-10-19T08:17:43;25.12;;;17.05;;
79759;SDS011;70512;42.122;24.732;2023-10-19T08:20:13;21.05;;;15.28;;
79759;SDS011;70512;42.122;24.732;2023-10-19T08:22:57;21.77;;;14.55;;
79759;SDS011;70512;42.122;24.732;2023-10-19T08:25:24;20.80;;;15.38;;
79759;SDS011;70512;42.122;24.732;2023-10-19T08:30:23;38.08;;;14.90;;
79759;SDS011;70512;42.122;24.732;2023-10-19T08:32:51;18.02;;;13.68;;
79759;SDS011;70512;42.122;24.732;2023-10-19T08:35:21;22.50;;;15.98;;
79759;SDS011;70512;42.122;24.732;2023-10-19T08:37:55;23.85;;;17.00;;
79759;SDS011;70512;42.122;24.732;2023-10-19T08:40:21;37.63;;;16.45;;
79759;SDS011;70512;42.122;24.732;2023-10-19T08:42:49;24.30;;;16.12;;
79759;SDS011;70512;42.122;24.732;2023-10-19T08:45:17;24.50;;;17.00;;
79759;SDS011;70512;42.122;24.732;2023-10-19T08:50:23;23.30;;;17.35;;
79759;SDS011;70512;42.122;24.732;2023-10-19T08:52:52;22.55;;;16.67;;
79759;SDS011;70512;42.122;24.732;2023-10-19T08:55:21;32.98;;;22.65;;
79759;SDS011;70512;42.122;24.732;2023-10-19T08:57:50;27.20;;;18.20;;
79759;SDS011;70512;42.122;24.732;2023-10-19T09:00:18;29.55;;;17.82;;
79759;SDS011;70512;42.122;24.732;2023-10-19T09:02:48;24.98;;;17.48;;
79759;SDS011;70512;42.122;24.732;2023-10-19T09:05:18;23.15;;;16.32;;
79759;SDS011;70512;42.122;24.732;2023-10-19T09:07:49;23.25;;;17.25;;
79759;SDS011;70512;42.122;24.732;2023-10-19T09:10:25;23.90;;;16.25;;
79759;SDS011;70512;42.122;24.732;2023-10-19T09:13:00;23.65;;;16.40;;
79759;SDS011;70512;42.122;24.732;2023-10-19T09:15:29;24.98;;;16.73;;
79759;SDS011;70512;42.122;24.732;2023-10-19T09:18:17;26.48;;;17.50;;
79759;SDS011;70512;42.122;24.732;2023-10-19T09:20:47;28.38;;;17.00;;
79759;SDS011;70512;42.122;24.732;2023-10-19T09:23:20;30.97;;;22.32;;
79759;SDS011;70512;42.122;24.732;2023-10-19T09:25:53;22.80;;;16.73;;
79759;SDS011;70512;42.122;24.732;2023-10-19T09:28:22;23.73;;;15.55;;
79759;SDS011;70512;42.122;24.732;2023-10-19T09:30:51;19.98;;;15.45;;
79759;SDS011;70512;42.122;24.732;2023-10-19T09:33:19;23.73;;;15.45;;
79759;SDS011;70512;42.122;24.732;2023-10-19T09:35:50;20.48;;;15.48;;
79759;SDS011;70512;42.122;24.732;2023-10-19T09:38:19;22.87;;;14.18;;
79759;SDS011;70512;42.122;24.732;2023-10-19T09:40:52;19.25;;;15.00;;
79759;SDS011;70512;42.122;24.732;2023-10-19T09:43:22;23.02;;;13.60;;
79759;SDS011;70512;42.122;24.732;2023-10-19T09:46:10;15.70;;;13.15;;
79759;SDS011;70512;42.122;24.732;2023-10-19T09:48:45;16.80;;;13.55;;
79759;SDS011;70512;42.122;24.732;2023-10-19T09:51:10;15.60;;;12.05;;
79759;SDS011;70512;42.122;24.732;2023-10-19T09:53:38;20.55;;;14.03;;
79759;SDS011;70512;42.122;24.732;2023-10-19T09:56:08;17.37;;;12.73;;
79759;SDS011;70512;42.122;24.732;2023-10-19T09:58:41;14.40;;;11.43;;
79759;SDS011;70512;42.122;24.732;2023-10-19T10:01:13;14.63;;;10.68;;
79759;SDS011;70512;42.122;24.732;2023-10-19T10:03:42;13.40;;;10.08;;
79759;SDS011;70512;42.122;24.732;2023-10-19T10:06:29;13.38;;;9.88;;
79759;SDS011;70512;42.122;24.732;2023-10-19T10:08:59;15.35;;;10.32;;
79759;SDS011;70512;42.122;24.732;2023-10-19T10:11:30;20.05;;;11.97;;
79759;SDS011;70512;42.122;24.732;2023-10-19T10:14:00;14.38;;;11.38;;
79759;SDS011;70512;42.122;24.732;2023-10-19T10:16:29;18.85;;;11.18;;
79759;SDS011;70512;42.122;24.732;2023-10-19T10:18:59;12.18;;;10.85;;
79759;SDS011;70512;42.122;24.732;2023-10-19T10:21:27;17.80;;;11.83;;
79759;SDS011;70512;42.122;24.732;2023-10-19T10:23:57;12.05;;;9.85;;
79759;SDS011;70512;42.122;24.732;2023-10-19T10:26:29;15.90;;;10.10;;
79759;SDS011;70512;42.122;24.732;2023-10-19T10:31:48;18.13;;;10.67;;
79759;SDS011;70512;42.122;24.732;2023-10-19T10:37:10;15.20;;;12.27;;
79759;SDS011;70512;42.122;24.732;2023-10-19T10:39:40;9.47;;;8.57;;
79759;SDS011;70512;42.122;24.732;2023-10-19T10:42:09;15.58;;;9.53;;
79759;SDS011;70512;42.122;24.732;2023-10-19T10:47:18;17.02;;;12.35;;
79759;SDS011;70512;42.122;24.732;2023-10-19T10:49:48;17.75;;;10.10;;
79759;SDS011;70512;42.122;24.732;2023-10-19T10:52:27;12.73;;;8.75;;
79759;SDS011;70512;42.122;24.732;2023-10-19T10:55:10;10.65;;;8.38;;
79759;SDS011;70512;42.122;24.732;2023-10-19T10:57:39;11.08;;;8.33;;
79759;SDS011;70512;42.122;24.732;2023-10-19T11:00:11;9.48;;;8.33;;
79759;SDS011;70512;42.122;24.732;2023-10-19T11:05:17;12.15;;;8.08;;
79759;SDS011;70512;42.122;24.732;2023-10-19T11:10:42;15.53;;;10.48;;
79759;SDS011;70512;42.122;24.732;2023-10-19T11:13:13;13.65;;;11.73;;
79759;SDS011;70512;42.122;24.732;2023-10-19T11:15:52;12.55;;;8.08;;
79759;SDS011;70512;42.122;24.732;2023-10-19T11:18:33;9.98;;;8.78;;
79759;SDS011;70512;42.122;24.732;2023-10-19T11:21:15;12.45;;;8.43;;
79759;SDS011;70512;42.122;24.732;2023-10-19T11:23:45;11.20;;;9.10;;
79759;SDS011;70512;42.122;24.732;2023-10-19T11:26:15;19.20;;;15.13;;
79759;SDS011;70512;42.122;24.732;2023-10-19T11:28:43;23.00;;;9.97;;
79759;SDS011;70512;42.122;24.732;2023-10-19T11:31:13;27.32;;;11.60;;
79759;SDS011;70512;42.122;24.732;2023-10-19T11:33:45;10.18;;;9.05;;
79759;SDS011;70512;42.122;24.732;2023-10-19T11:36:16;10.78;;;8.58;;
79759;SDS011;70512;42.122;24.732;2023-10-19T11:38:49;10.95;;;8.85;;
79759;SDS011;70512;42.122;24.732;2023-10-19T11:41:20;23.42;;;13.85;;
79759;SDS011;70512;42.122;24.732;2023-10-19T11:43:49;17.40;;;10.80;;
79759;SDS011;70512;42.122;24.732;2023-10-19T11:46:17;20.75;;;10.98;;
79759;SDS011;70512;42.122;24.732;2023-10-19T11:48:46;11.63;;;10.13;;
79759;SDS011;70512;42.122;24.732;2023-10-19T11:51:14;22.15;;;15.30;;
79759;SDS011;70512;42.122;24.732;2023-10-19T11:53:41;11.68;;;9.50;;
79759;SDS011;70512;42.122;24.732;2023-10-19T11:56:10;12.53;;;9.08;;
79759;SDS011;70512;42.122;24.732;2023-10-19T11:58:39;11.45;;;8.70;;
79759;SDS011;70512;42.122;24.732;2023-10-19T12:01:09;10.43;;;9.33;;
79759;SDS011;70512;42.122;24.732;2023-10-19T12:03:41;13.95;;;9.55;;
79759;SDS011;70512;42.122;24.732;2023-10-19T12:06:12;13.83;;;9.13;;
79759;SDS011;70512;42.122;24.732;2023-10-19T12:08:41;12.23;;;10.60;;
79759;SDS011;70512;42.122;24.732;2023-10-19T12:11:09;11.90;;;10.45;;
79759;SDS011;70512;42.122;24.732;2023-10-19T12:13:44;9.93;;;8.88;;
79759;SDS011;70512;42.122;24.732;2023-10-19T12:16:13;15.78;;;9.15;;
79759;SDS011;70512;42.122;24.732;2023-10-19T12:18:46;11.63;;;8.53;;
79759;SDS011;70512;42.122;24.732;2023-10-19T12:21:17;13.13;;;10.15;;
79759;SDS011;70512;42.122;24.732;2023-10-19T12:23:46;11.55;;;8.93;;
79759;SDS011;70512;42.122;24.732;2023-10-19T12:26:21;10.98;;;9.05;;
79759;SDS011;70512;42.122;24.732;2023-10-19T12:28:49;14.85;;;8.75;;
79759;SDS011;70512;42.122;24.732;2023-10-19T12:31:17;10.68;;;8.55;;
79759;SDS011;70512;42.122;24.732;2023-10-19T12:33:44;9.25;;;8.00;;
79759;SDS011;70512;42.122;24.732;2023-10-19T12:36:12;9.35;;;7.55;;
79759;SDS011;70512;42.122;24.732;2023-10-19T12:38:58;10.03;;;7.60;;
79759;SDS011;70512;42.122;24.732;2023-10-19T12:41:26;10.13;;;7.78;;
79759;SDS011;70512;42.122;24.732;2023-10-19T12:43:55;9.28;;;7.67;;
79759;SDS011;70512;42.122;24.732;2023-10-19T12:46:26;9.88;;;7.05;;
79759;SDS011;70512;42.122;24.732;2023-10-19T12:48:55;8.10;;;6.80;;
79759;SDS011;70512;42.122;24.732;2023-10-19T12:51:24;11.25;;;8.15;;
79759;SDS011;70512;42.122;24.732;2023-10-19T12:53:52;13.98;;;8.50;;
79759;SDS011;70512;42.122;24.732;2023-10-19T12:56:20;13.90;;;8.25;;
79759;SDS011;70512;42.122;24.732;2023-10-19T12:58:53;10.25;;;6.97;;
79759;SDS011;70512;42.122;24.732;2023-10-19T13:01:20;10.05;;;6.35;;
79759;SDS011;70512;42.122;24.732;2023-10-19T13:03:48;8.88;;;6.30;;
79759;SDS011;70512;42.122;24.732;2023-10-19T13:06:16;9.78;;;6.17;;
79759;SDS011;70512;42.122;24.732;2023-10-19T13:08:45;17.12;;;5.95;;
79759;SDS011;70512;42.122;24.732;2023-10-19T13:11:13;10.85;;;6.53;;
79759;SDS011;70512;42.122;24.732;2023-10-19T13:13:40;9.68;;;6.25;;
79759;SDS011;70512;42.122;24.732;2023-10-19T13:16:09;10.48;;;6.62;;
79759;SDS011;70512;42.122;24.732;2023-10-19T13:18:37;8.80;;;6.78;;
79759;SDS011;70512;42.122;24.732;2023-10-19T13:21:06;6.97;;;5.35;;
79759;SDS011;70512;42.122;24.732;2023-10-19T13:23:35;9.18;;;6.60;;
79759;SDS011;70512;42.122;24.732;2023-10-19T13:26:03;10.63;;;6.65;;
79759;SDS011;70512;42.122;24.732;2023-10-19T13:28:35;9.70;;;7.10;;
79759;SDS011;70512;42.122;24.732;2023-10-19T13:31:03;8.55;;;6.45;;
79759;SDS011;70512;42.122;24.732;2023-10-19T13:33:33;11.83;;;7.28;;
79759;SDS011;70512;42.122;24.732;2023-10-19T13:36:00;10.15;;;6.80;;
79759;SDS011;70512;42.122;24.732;2023-10-19T13:38:28;12.03;;;6.67;;
79759;SDS011;70512;42.122;24.732;2023-10-19T13:40:56;12.75;;;8.10;;
79759;SDS011;70512;42.122;24.732;2023-10-19T13:43:24;20.52;;;14.35;;
79759;SDS011;70512;42.122;24.732;2023-10-19T13:45:51;10.45;;;7.00;;
79759;SDS011;70512;42.122;24.732;2023-10-19T13:48:19;11.22;;;7.95;;
79759;SDS011;70512;42.122;24.732;2023-10-19T13:50:47;10.40;;;7.58;;
79759;SDS011;70512;42.122;24.732;2023-10-19T13:53:15;10.90;;;7.40;;
79759;SDS011;70512;42.122;24.732;2023-10-19T13:55:44;13.62;;;7.60;;
79759;SDS011;70512;42.122;24.732;2023-10-19T13:58:12;10.00;;;7.65;;
79759;SDS011;70512;42.122;24.732;2023-10-19T14:00:41;9.93;;;7.28;;
79759;SDS011;70512;42.122;24.732;2023-10-19T14:03:09;9.43;;;7.45;;
79759;SDS011;70512;42.122;24.732;2023-10-19T14:05:42;10.10;;;6.70;;
79759;SDS011;70512;42.122;24.732;2023-10-19T14:08:11;14.78;;;9.38;;
79759;SDS011;70512;42.122;24.732;2023-10-19T14:10:40;11.22;;;9.28;;
79759;SDS011;70512;42.122;24.732;2023-10-19T14:13:08;12.47;;;8.35;;
79759;SDS011;70512;42.122;24.732;2023-10-19T14:15:38;15.88;;;9.25;;
79759;SDS011;70512;42.122;24.732;2023-10-19T14:18:06;10.18;;;8.33;;
79759;SDS011;70512;42.122;24.732;2023-10-19T14:20:34;9.13;;;8.00;;
79759;SDS011;70512;42.122;24.732;2023-10-19T14:23:03;11.57;;;8.98;;
79759;SDS011;70512;42.122;24.732;2023-10-19T14:25:31;12.00;;;9.25;;
79759;SDS011;70512;42.122;24.732;2023-10-19T14:28:00;13.08;;;8.75;;
79759;SDS011;70512;42.122;24.732;2023-10-19T14:30:29;10.30;;;8.38;;
79759;SDS011;70512;42.122;24.732;2023-10-19T14:32:57;13.03;;;10.15;;
79759;SDS011;70512;42.122;24.732;2023-10-19T14:35:25;14.93;;;9.58;;
79759;SDS011;70512;42.122;24.732;2023-10-19T14:37:53;15.15;;;10.32;;
79759;SDS011;70512;42.122;24.732;2023-10-19T14:40:23;15.80;;;9.95;;
79759;SDS011;70512;42.122;24.732;2023-10-19T14:45:22;13.10;;;8.93;;
79759;SDS011;70512;42.122;24.732;2023-10-19T14:47:58;12.53;;;8.23;;
79759;SDS011;70512;42.122;24.732;2023-10-19T14:50:27;10.32;;;8.28;;
79759;SDS011;70512;42.122;24.732;2023-10-19T14:52:55;12.78;;;8.38;;
79759;SDS011;70512;42.122;24.732;2023-10-19T14:55:23;14.83;;;7.50;;
79759;SDS011;70512;42.122;24.732;2023-10-19T14:57:52;14.68;;;8.10;;
79759;SDS011;70512;42.122;24.732;2023-10-19T15:00:21;10.88;;;8.93;;
79759;SDS011;70512;42.122;24.732;2023-10-19T15:03:04;12.20;;;8.33;;